createdAt,value
2018-02-24T00:00:09.195Z,6.97
2018-02-24T00:02:12.358Z,7.10
2018-02-24T00:04:15.752Z,7.37
2018-02-24T00:06:19.167Z,7.83
2018-02-24T00:08:22.541Z,6.97
2018-02-24T00:10:25.958Z,6.67
2018-02-24T00:12:29.325Z,6.87
2018-02-24T00:14:32.722Z,7.30
2018-02-24T00:16:36.286Z,6.97
2018-02-24T00:18:39.662Z,7.17
2018-02-24T00:20:43.110Z,6.93
2018-02-24T00:22:46.617Z,7.53
2018-02-24T00:24:49.985Z,6.50
2018-02-24T00:26:53.348Z,7.83
2018-02-24T00:28:56.710Z,7.13
2018-02-24T00:31:00.137Z,7.00
2018-02-24T00:33:03.497Z,7.57
2018-02-24T00:35:07.638Z,7.63
2018-02-24T00:37:11.018Z,7.13
2018-02-24T00:39:14.367Z,6.97
2018-02-24T00:41:17.572Z,8.03
2018-02-24T00:43:21.707Z,7.00
2018-02-24T00:45:25.482Z,6.77
2018-02-24T00:47:29.619Z,7.40
2018-02-24T00:49:32.856Z,7.50
2018-02-24T00:51:36.067Z,7.07
2018-02-24T00:53:40.011Z,7.60
2018-02-24T00:55:43.196Z,7.10
2018-02-24T00:57:46.558Z,7.20
2018-02-24T00:59:50.689Z,7.07
2018-02-24T01:01:53.908Z,7.77
2018-02-24T01:03:57.268Z,7.00
2018-02-24T01:06:00.732Z,7.67
2018-02-24T01:08:04.460Z,7.27
2018-02-24T01:10:07.940Z,7.13
2018-02-24T01:12:11.367Z,7.97
2018-02-24T01:14:14.580Z,7.53
2018-02-24T01:16:17.946Z,7.77
2018-02-24T01:18:21.310Z,7.40
2018-02-24T01:20:24.526Z,7.27
2018-02-24T01:22:27.942Z,8.33
2018-02-24T01:24:31.336Z,7.80
2018-02-24T01:26:34.706Z,7.53
2018-02-24T01:28:38.071Z,7.47
2018-02-24T01:30:41.429Z,6.90
2018-02-24T01:32:44.633Z,7.50
2018-02-24T01:34:48.578Z,7.83
2018-02-24T01:36:51.940Z,7.80
2018-02-24T01:38:56.071Z,7.53
2018-02-24T01:40:59.438Z,7.70
2018-02-24T01:43:03.593Z,7.57
2018-02-24T01:45:06.965Z,7.80
2018-02-24T01:47:10.332Z,7.10
2018-02-24T01:49:14.465Z,8.67
2018-02-24T01:51:17.836Z,8.47
2018-02-24T01:53:21.244Z,8.33
2018-02-24T01:55:24.608Z,7.40
2018-02-24T01:57:28.756Z,7.87
2018-02-24T01:59:32.113Z,7.83
2018-02-24T02:01:36.269Z,7.53
2018-02-24T02:03:40.584Z,7.33
2018-02-24T02:05:43.952Z,7.50
2018-02-24T02:07:47.310Z,7.83
2018-02-24T02:09:52.134Z,8.37
2018-02-24T02:11:55.543Z,8.20
2018-02-24T02:13:59.702Z,8.33
2018-02-24T02:16:03.095Z,7.03
2018-02-24T02:18:06.533Z,6.70
2018-02-24T02:20:10.674Z,7.50
2018-02-24T02:22:14.097Z,7.50
2018-02-24T02:24:17.487Z,6.87
2018-02-24T02:26:20.860Z,7.37
2018-02-24T02:28:24.213Z,7.37
2018-02-24T02:30:28.355Z,8.00
2018-02-24T02:32:31.790Z,7.40
2018-02-24T02:34:35.191Z,7.50
2018-02-24T02:36:38.560Z,7.13
2018-02-24T02:38:42.030Z,6.70
2018-02-24T02:40:45.424Z,7.97
2018-02-24T02:42:48.794Z,7.60
2018-02-24T02:44:52.952Z,7.67
2018-02-24T02:46:56.342Z,7.70
2018-02-24T02:48:59.730Z,7.17
2018-02-24T02:51:03.089Z,7.63
2018-02-24T02:53:06.510Z,6.57
2018-02-24T02:55:09.927Z,7.20
2018-02-24T02:57:13.299Z,8.07
2018-02-24T02:59:16.717Z,6.93
2018-02-24T03:01:20.873Z,7.90
2018-02-24T03:03:24.251Z,7.63
2018-02-24T03:05:28.514Z,6.97
2018-02-24T03:07:31.888Z,7.27
2018-02-24T03:09:35.259Z,8.03
2018-02-24T03:11:39.626Z,8.30
2018-02-24T03:13:43.024Z,6.90
2018-02-24T03:15:47.272Z,6.93
2018-02-24T03:17:50.653Z,7.67
2018-02-24T03:19:54.806Z,7.60
2018-02-24T03:21:58.174Z,7.57
2018-02-24T03:24:01.541Z,7.07
2018-02-24T03:26:05.769Z,7.47
2018-02-24T03:28:09.371Z,6.63
2018-02-24T03:30:12.782Z,7.80
2018-02-24T03:32:16.241Z,7.27
2018-02-24T03:34:20.378Z,6.90
2018-02-24T03:36:23.766Z,7.23
2018-02-24T03:38:27.201Z,7.23
2018-02-24T03:40:30.573Z,7.57
2018-02-24T03:42:33.758Z,7.43
2018-02-24T03:44:36.931Z,7.37
2018-02-24T03:46:40.152Z,7.23
2018-02-24T03:48:43.513Z,7.23
2018-02-24T03:50:46.681Z,7.27
2018-02-24T03:52:49.879Z,7.73
2018-02-24T03:54:53.239Z,7.17
2018-02-24T03:56:56.634Z,7.07
2018-02-24T03:59:00.765Z,7.43
2018-02-24T04:01:04.143Z,7.33
2018-02-24T04:03:08.270Z,7.40
2018-02-24T04:05:11.452Z,9.00
2018-02-24T04:07:14.669Z,6.97
2018-02-24T04:09:18.059Z,7.43
2018-02-24T04:11:21.423Z,6.80
2018-02-24T04:13:24.848Z,8.00
2018-02-24T04:15:28.211Z,7.43
2018-02-24T04:17:31.596Z,7.10
2018-02-24T04:19:35.545Z,6.87
2018-02-24T04:21:38.924Z,8.20
2018-02-24T04:23:42.355Z,7.10
2018-02-24T04:25:45.728Z,7.50
2018-02-24T04:27:49.110Z,6.80
2018-02-24T04:29:52.485Z,7.40
2018-02-24T04:31:55.986Z,7.03
2018-02-24T04:33:59.346Z,6.67
2018-02-24T04:36:02.705Z,6.97
2018-02-24T04:38:08.154Z,7.50
2018-02-24T04:40:11.526Z,7.37
2018-02-24T04:42:14.893Z,7.13
2018-02-24T04:44:18.483Z,7.57
2018-02-24T04:46:22.107Z,8.00
2018-02-24T04:48:25.551Z,7.57
2018-02-24T04:50:28.958Z,7.60
2018-02-24T04:52:32.365Z,7.10
2018-02-24T04:54:35.797Z,7.70
2018-02-24T04:56:39.213Z,7.40
2018-02-24T04:58:43.480Z,7.57
2018-02-24T05:00:46.857Z,7.40
2018-02-24T05:02:50.233Z,7.87
2018-02-24T05:04:53.676Z,7.80
2018-02-24T05:06:57.054Z,7.27
2018-02-24T05:09:00.438Z,7.57
2018-02-24T05:11:03.946Z,7.50
2018-02-24T05:13:07.312Z,7.87
2018-02-24T05:15:10.705Z,7.90
2018-02-24T05:17:14.092Z,7.83
2018-02-24T05:19:17.488Z,6.53
2018-02-24T05:21:20.908Z,7.60
2018-02-24T05:23:24.275Z,7.20
2018-02-24T05:25:27.634Z,6.77
2018-02-24T05:27:31.752Z,7.20
2018-02-24T05:29:35.133Z,8.03
2018-02-24T05:31:39.298Z,7.33
2018-02-24T05:33:42.854Z,7.37
2018-02-24T05:35:46.216Z,7.67
2018-02-24T05:37:49.662Z,7.10
2018-02-24T05:39:53.031Z,7.30
2018-02-24T05:41:57.168Z,8.30
2018-02-24T05:44:00.529Z,7.83
2018-02-24T05:46:04.660Z,7.30
2018-02-24T05:48:08.055Z,7.10
2018-02-24T05:50:11.414Z,7.53
2018-02-24T05:52:15.554Z,7.73
2018-02-24T05:54:18.940Z,7.83
2018-02-24T05:56:22.301Z,7.90
2018-02-24T05:58:26.458Z,7.47
2018-02-24T06:00:29.633Z,7.03
2018-02-24T06:02:32.990Z,7.07
2018-02-24T06:04:37.160Z,8.00
2018-02-24T06:06:40.525Z,6.77
2018-02-24T06:08:43.890Z,7.60
2018-02-24T06:10:47.314Z,6.70
2018-02-24T06:12:50.681Z,7.37
2018-02-24T06:14:54.043Z,7.10
2018-02-24T06:16:57.416Z,6.80
2018-02-24T06:19:00.786Z,7.87
2018-02-24T06:21:04.174Z,7.53
2018-02-24T06:23:07.543Z,7.77
2018-02-24T06:25:11.684Z,7.83
2018-02-24T06:27:14.869Z,7.57
2018-02-24T06:29:18.231Z,7.57
2018-02-24T06:31:21.628Z,8.27
2018-02-24T06:33:24.988Z,7.47
2018-02-24T06:35:28.355Z,9.23
2018-02-24T06:37:31.751Z,8.50
2018-02-24T06:39:35.029Z,7.80
2018-02-24T06:41:38.396Z,8.17
2018-02-24T06:43:41.768Z,8.97
2018-02-24T06:45:45.686Z,8.27
2018-02-24T06:47:49.051Z,8.70
2018-02-24T06:49:53.191Z,8.93
2018-02-24T06:51:56.706Z,8.07
2018-02-24T06:54:00.082Z,8.23
2018-02-24T06:56:03.581Z,8.93
2018-02-24T06:58:07.034Z,8.47
2018-02-24T07:00:10.598Z,8.67
2018-02-24T07:02:13.970Z,8.23
2018-02-24T07:04:17.329Z,8.60
2018-02-24T07:06:21.467Z,8.13
2018-02-24T07:08:25.108Z,8.80
2018-02-24T07:10:29.312Z,9.17
2018-02-24T07:12:32.769Z,8.30
2018-02-24T07:14:36.130Z,8.23
2018-02-24T07:16:40.344Z,7.70
2018-02-24T07:18:43.805Z,7.67
2018-02-24T07:20:47.161Z,8.87
2018-02-24T07:22:50.680Z,8.70
2018-02-24T07:24:54.232Z,8.77
2018-02-24T07:26:57.974Z,8.27
2018-02-24T07:29:01.380Z,7.47
2018-02-24T07:31:04.844Z,8.07
2018-02-24T07:33:08.638Z,8.67
2018-02-24T07:35:12.010Z,8.43
2018-02-24T07:37:15.397Z,8.77
2018-02-24T07:39:19.532Z,8.10
2018-02-24T07:41:22.904Z,8.47
2018-02-24T07:43:26.287Z,8.33
2018-02-24T07:45:30.427Z,8.07
2018-02-24T07:47:33.789Z,8.87
2018-02-24T07:49:37.918Z,9.93
2018-02-24T07:51:41.276Z,8.63
2018-02-24T07:53:44.742Z,8.63
2018-02-24T07:55:48.193Z,8.57
2018-02-24T07:57:51.556Z,8.00
2018-02-24T07:59:54.927Z,8.70
2018-02-24T08:01:58.518Z,9.67
2018-02-24T08:04:01.905Z,8.43
2018-02-24T08:06:06.058Z,8.30
2018-02-24T08:08:09.504Z,8.37
2018-02-24T08:10:12.968Z,8.37
2018-02-24T08:12:16.343Z,8.40
2018-02-24T08:14:20.488Z,9.07
2018-02-24T08:16:24.343Z,9.47
2018-02-24T08:18:27.733Z,9.20
2018-02-24T08:20:31.154Z,9.30
2018-02-24T08:22:34.525Z,8.17
2018-02-24T08:24:38.752Z,9.70
2018-02-24T08:26:42.872Z,9.87
2018-02-24T08:28:46.290Z,9.50
2018-02-24T08:30:49.785Z,9.83
2018-02-24T08:32:53.209Z,9.07
2018-02-24T08:34:56.662Z,10.27
2018-02-24T08:37:00.153Z,9.23
2018-02-24T08:39:03.346Z,9.17
2018-02-24T08:41:06.729Z,9.90
2018-02-24T08:43:10.099Z,9.27
2018-02-24T08:45:14.468Z,9.60
2018-02-24T08:47:19.102Z,9.40
2018-02-24T08:49:22.596Z,8.80
2018-02-24T08:51:25.965Z,9.83
2018-02-24T08:53:29.421Z,9.93
2018-02-24T08:55:32.865Z,9.73
2018-02-24T08:57:36.239Z,9.17
2018-02-24T08:59:39.730Z,10.20
2018-02-24T09:01:43.201Z,9.70
2018-02-24T09:03:46.584Z,8.80
2018-02-24T09:05:50.906Z,10.23
2018-02-24T09:07:54.317Z,9.10
2018-02-24T09:09:57.929Z,9.30
2018-02-24T09:12:01.403Z,9.77
2018-02-24T09:14:04.851Z,8.87
2018-02-24T09:16:08.283Z,9.23
2018-02-24T09:18:11.904Z,9.77
2018-02-24T09:20:15.294Z,9.23
2018-02-24T09:22:18.713Z,9.47
2018-02-24T09:24:22.111Z,9.90
2018-02-24T09:26:25.479Z,9.43
2018-02-24T09:28:28.871Z,10.50
2018-02-24T09:30:32.315Z,9.50
2018-02-24T09:32:36.480Z,9.93
2018-02-24T09:34:40.089Z,9.67
2018-02-24T09:36:43.498Z,9.53
2018-02-24T09:38:47.861Z,10.17
2018-02-24T09:40:51.564Z,9.07
2018-02-24T09:42:54.971Z,9.30
2018-02-24T09:44:58.335Z,9.10
2018-02-24T09:47:01.703Z,9.87
2018-02-24T09:49:06.597Z,9.33
2018-02-24T09:51:09.971Z,8.43
2018-02-24T09:53:13.428Z,10.00
2018-02-24T09:55:16.954Z,9.37
2018-02-24T09:57:20.347Z,10.27
2018-02-24T09:59:23.737Z,9.50
2018-02-24T10:01:27.158Z,9.13
2018-02-24T10:03:30.759Z,10.43
2018-02-24T10:05:34.176Z,8.93
2018-02-24T10:07:38.297Z,9.73
2018-02-24T10:09:42.478Z,9.50
2018-02-24T10:11:45.862Z,10.47
2018-02-24T10:13:49.230Z,10.50
2018-02-24T10:15:52.597Z,9.30
2018-02-24T10:17:55.962Z,8.83
2018-02-24T10:20:00.132Z,9.67
2018-02-24T10:22:03.503Z,10.47
2018-02-24T10:24:06.941Z,9.23
2018-02-24T10:26:10.311Z,10.23
2018-02-24T10:28:14.457Z,9.93
2018-02-24T10:30:17.837Z,9.77
2018-02-24T10:32:21.207Z,9.17
2018-02-24T10:34:24.576Z,9.00
2018-02-24T10:36:27.969Z,9.50
2018-02-24T10:38:31.336Z,9.20
2018-02-24T10:40:34.752Z,9.90
2018-02-24T10:42:38.188Z,9.70
2018-02-24T10:44:41.543Z,9.33
2018-02-24T10:46:44.949Z,10.37
2018-02-24T10:48:47.871Z,9.57
2018-02-24T10:50:52.031Z,9.20
2018-02-24T10:52:55.422Z,9.33
2018-02-24T10:54:58.989Z,9.27
2018-02-24T10:57:02.408Z,9.27
2018-02-24T10:59:05.771Z,9.53
2018-02-24T11:01:09.909Z,10.00
2018-02-24T11:03:13.270Z,9.33
2018-02-24T11:05:19.336Z,9.73
2018-02-24T11:07:22.723Z,8.57
2018-02-24T11:09:26.863Z,9.50
2018-02-24T11:11:30.229Z,9.83
2018-02-24T11:13:33.606Z,8.47
2018-02-24T11:15:37.742Z,8.87
2018-02-24T11:17:41.141Z,9.27
2018-02-24T11:19:44.581Z,8.60
2018-02-24T11:21:47.947Z,9.07
2018-02-24T11:23:51.343Z,9.87
2018-02-24T11:25:54.482Z,9.20
2018-02-24T11:27:58.610Z,8.50
2018-02-24T11:30:01.981Z,8.30
2018-02-24T11:32:06.112Z,8.90
2018-02-24T11:34:09.518Z,9.33
2018-02-24T11:36:12.878Z,8.83
2018-02-24T11:38:17.015Z,10.50
2018-02-24T11:40:20.377Z,8.80
2018-02-24T11:42:23.755Z,9.03
2018-02-24T11:44:27.933Z,8.67
2018-02-24T11:46:31.305Z,8.90
2018-02-24T11:48:34.654Z,8.33
2018-02-24T11:50:38.788Z,9.07
2018-02-24T11:52:42.152Z,8.97
2018-02-24T11:54:46.314Z,7.73
2018-02-24T11:56:50.311Z,9.43
2018-02-24T11:58:53.706Z,8.27
2018-02-24T12:00:57.111Z,8.37
2018-02-24T12:03:00.468Z,9.30
2018-02-24T12:05:03.882Z,8.80
2018-02-24T12:07:07.244Z,8.40
2018-02-24T12:09:11.481Z,8.57
2018-02-24T12:11:15.689Z,8.30
2018-02-24T12:13:19.059Z,8.30
2018-02-24T12:15:22.448Z,8.40
2018-02-24T12:17:26.620Z,8.20
2018-02-24T12:19:29.982Z,9.23
2018-02-24T12:21:33.361Z,7.80
2018-02-24T12:23:36.740Z,7.67
2018-02-24T12:25:40.117Z,8.53
2018-02-24T12:27:44.285Z,8.60
2018-02-24T12:29:47.662Z,8.20
2018-02-24T12:31:51.031Z,7.90
2018-02-24T12:33:55.162Z,8.30
2018-02-24T12:35:58.520Z,8.30
2018-02-24T12:38:02.678Z,7.33
2018-02-24T12:40:06.241Z,7.73
2018-02-24T12:42:09.657Z,8.03
2018-02-24T12:44:13.015Z,7.87
2018-02-24T12:46:17.141Z,8.30
2018-02-24T12:48:20.537Z,7.50
2018-02-24T12:50:23.723Z,7.97
2018-02-24T12:52:27.081Z,7.37
2018-02-24T12:54:30.453Z,8.33
2018-02-24T12:56:33.818Z,7.20
2018-02-24T12:58:37.214Z,7.40
2018-02-24T13:00:40.399Z,6.90
2018-02-24T13:02:43.603Z,7.77
2018-02-24T13:04:47.017Z,7.97
2018-02-24T13:06:50.378Z,8.03
2018-02-24T13:08:53.770Z,7.23
2018-02-24T13:10:57.140Z,7.67
2018-02-24T13:13:00.506Z,7.17
2018-02-24T13:15:04.656Z,7.00
2018-02-24T13:17:08.022Z,7.07
2018-02-24T13:19:11.399Z,6.80
2018-02-24T13:21:15.542Z,7.10
2018-02-24T13:23:18.713Z,7.23
2018-02-24T13:25:22.157Z,7.43
2018-02-24T13:27:26.416Z,6.73
2018-02-24T13:29:29.784Z,7.23
2018-02-24T13:31:33.002Z,6.80
2018-02-24T13:33:36.380Z,7.23
2018-02-24T13:35:40.329Z,6.63
2018-02-24T13:37:43.681Z,6.57
2018-02-24T13:39:47.040Z,6.73
2018-02-24T13:41:50.712Z,7.30
2018-02-24T13:43:55.019Z,7.05
2018-02-24T13:45:58.440Z,7.40
2018-02-24T13:48:01.645Z,6.40
2018-02-24T13:50:05.018Z,6.27
2018-02-24T13:52:08.428Z,6.43
2018-02-24T13:54:11.912Z,5.53
2018-02-24T13:56:15.363Z,6.60
2018-02-24T13:58:18.826Z,7.17
2018-02-24T14:00:22.232Z,6.60
2018-02-24T14:02:25.666Z,6.60
2018-02-24T14:04:29.058Z,6.27
2018-02-24T14:06:32.564Z,6.97
2018-02-24T14:08:35.950Z,6.10
2018-02-24T14:10:39.462Z,6.43
2018-02-24T14:12:42.771Z,7.10
2018-02-24T14:14:46.949Z,6.70
2018-02-24T14:16:50.493Z,7.30
2018-02-24T14:18:54.119Z,7.50
2018-02-24T14:20:57.490Z,7.03
2018-02-24T14:23:00.887Z,7.80
2018-02-24T14:25:04.124Z,7.27
2018-02-24T14:27:09.504Z,7.00
2018-02-24T14:29:14.102Z,7.73
2018-02-24T14:31:17.544Z,7.33
2018-02-24T14:33:21.310Z,7.27
2018-02-24T14:35:25.518Z,8.20
2018-02-24T14:37:29.109Z,6.60
2018-02-24T14:39:32.517Z,7.57
2018-02-24T14:41:36.908Z,6.50
2018-02-24T14:43:41.102Z,6.80
2018-02-24T14:45:44.536Z,7.27
2018-02-24T14:47:48.685Z,6.60
2018-02-24T14:49:52.385Z,7.03
2018-02-24T14:51:56.328Z,6.90
2018-02-24T14:53:59.835Z,7.20
2018-02-24T14:56:04.051Z,6.73
2018-02-24T14:58:08.188Z,6.60
2018-02-24T15:00:11.676Z,7.37
2018-02-24T15:02:16.108Z,7.07
2018-02-24T15:04:19.484Z,6.10
2018-02-24T15:06:23.422Z,6.30
2018-02-24T15:08:27.304Z,6.73
2018-02-24T15:10:32.036Z,6.63
2018-02-24T15:12:35.633Z,6.57
2018-02-24T15:14:39.863Z,5.70
2018-02-24T15:16:43.333Z,6.67
2018-02-24T15:18:47.749Z,5.87
2018-02-24T15:20:51.277Z,6.17
2018-02-24T15:22:54.728Z,6.03
2018-02-24T15:24:58.031Z,5.60
2018-02-24T15:27:01.476Z,5.60
2018-02-24T15:29:05.017Z,5.83
2018-02-24T15:31:08.422Z,6.07
2018-02-24T15:33:12.928Z,5.40
2018-02-24T15:35:16.334Z,5.83
2018-02-24T15:37:20.952Z,5.03
2018-02-24T15:39:24.469Z,5.60
2018-02-24T15:41:27.865Z,5.50
2018-02-24T15:43:31.265Z,5.47
2018-02-24T15:45:35.192Z,5.70
2018-02-24T15:47:38.688Z,5.40
2018-02-24T15:49:42.808Z,5.10
2018-02-24T15:51:46.310Z,5.47
2018-02-24T15:53:49.721Z,5.17
2018-02-24T15:55:52.914Z,5.73
2018-02-24T15:57:56.308Z,4.87
2018-02-24T15:59:59.655Z,5.53
2018-02-24T16:02:04.414Z,5.30
2018-02-24T16:04:07.825Z,5.10
2018-02-24T16:06:11.200Z,5.20
2018-02-24T16:08:14.661Z,5.40
2018-02-24T16:10:18.078Z,4.93
2018-02-24T16:12:21.251Z,5.70
2018-02-24T16:14:24.730Z,4.73
2018-02-24T16:16:28.674Z,5.17
2018-02-24T16:18:32.051Z,5.00
2018-02-24T16:20:35.413Z,4.80
2018-02-24T16:22:38.705Z,4.27
2018-02-24T16:24:42.196Z,4.40
2018-02-24T16:26:45.601Z,4.73
2018-02-24T16:28:49.012Z,4.47
2018-02-24T16:30:52.592Z,4.73
2018-02-24T16:32:55.841Z,4.57
2018-02-24T16:34:59.198Z,4.80
2018-02-24T16:37:02.569Z,4.37
2018-02-24T16:39:06.777Z,4.23
2018-02-24T16:41:10.940Z,4.43
2018-02-24T16:43:14.321Z,4.20
2018-02-24T16:45:17.692Z,4.60
2018-02-24T16:47:21.271Z,4.47
2018-02-24T16:49:25.391Z,4.40
2018-02-24T16:51:29.552Z,4.57
2018-02-24T16:53:32.931Z,4.80
2018-02-24T16:55:36.289Z,4.93
2018-02-24T16:57:39.651Z,4.87
2018-02-24T16:59:43.013Z,4.33
2018-02-24T17:01:46.408Z,3.87
2018-02-24T17:03:49.772Z,4.60
2018-02-24T17:05:53.139Z,4.30
2018-02-24T17:07:57.275Z,4.67
2018-02-24T17:10:00.674Z,5.00
2018-02-24T17:12:04.230Z,4.33
2018-02-24T17:14:08.208Z,4.17
2018-02-24T17:16:11.859Z,3.97
2018-02-24T17:18:15.326Z,4.67
2018-02-24T17:20:18.792Z,4.00
2018-02-24T17:22:22.191Z,4.17
2018-02-24T17:24:25.648Z,4.10
2018-02-24T17:26:29.080Z,4.13
2018-02-24T17:28:32.530Z,4.53
2018-02-24T17:30:36.053Z,4.27
2018-02-24T17:32:39.533Z,4.47
2018-02-24T17:34:43.062Z,4.67
2018-02-24T17:36:46.434Z,4.30
2018-02-24T17:38:49.610Z,4.47
2018-02-24T17:40:53.010Z,4.07
2018-02-24T17:42:56.617Z,4.37
2018-02-24T17:45:00.768Z,3.83
2018-02-24T17:47:04.132Z,4.00
2018-02-24T17:49:07.499Z,3.93
2018-02-24T17:51:10.872Z,4.23
2018-02-24T17:53:14.308Z,4.10
2018-02-24T17:55:17.660Z,4.53
2018-02-24T17:57:21.024Z,3.43
2018-02-24T17:59:24.386Z,4.33
2018-02-24T18:01:27.783Z,3.77
2018-02-24T18:03:31.778Z,4.40
2018-02-24T18:05:35.163Z,3.97
2018-02-24T18:07:38.554Z,3.93
2018-02-24T18:09:43.044Z,3.70
2018-02-24T18:11:46.650Z,4.50
2018-02-24T18:13:50.069Z,4.60
2018-02-24T18:15:53.476Z,3.90
2018-02-24T18:17:57.040Z,4.17
2018-02-24T18:20:00.554Z,4.00
2018-02-24T18:22:03.950Z,4.10
2018-02-24T18:24:07.363Z,4.40
2018-02-24T18:26:10.735Z,4.03
2018-02-24T18:28:14.104Z,3.70
2018-02-24T18:30:17.524Z,3.50
2018-02-24T18:32:20.883Z,3.53
2018-02-24T18:34:24.309Z,4.60
2018-02-24T18:36:27.683Z,4.10
2018-02-24T18:38:31.042Z,4.00
2018-02-24T18:40:34.405Z,3.50
2018-02-24T18:42:38.572Z,4.23
2018-02-24T18:44:41.999Z,3.87
2018-02-24T18:46:45.951Z,3.87
2018-02-24T18:48:49.311Z,3.67
2018-02-24T18:50:52.705Z,4.10
2018-02-24T18:52:56.129Z,3.80
2018-02-24T18:54:59.584Z,3.70
2018-02-24T18:57:03.052Z,4.03
2018-02-24T18:59:06.398Z,3.80
2018-02-24T19:01:09.853Z,4.00
2018-02-24T19:03:14.384Z,3.83
2018-02-24T19:05:18.719Z,3.83
2018-02-24T19:07:22.197Z,3.60
2018-02-24T19:09:26.658Z,3.53
2018-02-24T19:11:30.148Z,3.70
2018-02-24T19:13:33.651Z,3.97
2018-02-24T19:15:37.130Z,4.37
2018-02-24T19:17:40.445Z,4.23
2018-02-24T19:19:43.785Z,4.10
2018-02-24T19:21:47.299Z,3.57
2018-02-24T19:23:50.698Z,3.57
2018-02-24T19:25:53.887Z,3.87
2018-02-24T19:27:57.302Z,3.73
2018-02-24T19:30:00.576Z,3.93
2018-02-24T19:32:04.160Z,3.90
2018-02-24T19:34:07.664Z,3.90
2018-02-24T19:36:11.143Z,3.57
2018-02-24T19:38:14.522Z,3.83
2018-02-24T19:40:17.887Z,3.57
2018-02-24T19:42:21.291Z,3.60
2018-02-24T19:44:25.458Z,3.70
2018-02-24T19:46:28.878Z,3.43
2018-02-24T19:48:32.338Z,3.67
2018-02-24T19:50:35.712Z,3.60
2018-02-24T19:52:39.092Z,3.70
2018-02-24T19:54:42.459Z,3.47
2018-02-24T19:56:46.582Z,3.90
2018-02-24T19:58:50.718Z,3.60
2018-02-24T20:00:54.110Z,3.47
2018-02-24T20:02:57.476Z,3.77
2018-02-24T20:05:01.622Z,3.70
2018-02-24T20:07:05.006Z,3.70
2018-02-24T20:09:08.714Z,3.53
2018-02-24T20:11:12.224Z,3.47
2018-02-24T20:13:15.839Z,3.60
2018-02-24T20:15:19.291Z,3.40
2018-02-24T20:17:22.687Z,3.97
2018-02-24T20:19:26.052Z,3.70
2018-02-24T20:21:30.185Z,3.43
2018-02-24T20:23:34.032Z,3.20
2018-02-24T20:25:38.001Z,3.47
2018-02-24T20:27:41.355Z,3.47
2018-02-24T20:29:45.493Z,3.77
2018-02-24T20:31:48.877Z,3.43
2018-02-24T20:33:52.255Z,3.17
2018-02-24T20:35:55.615Z,3.53
2018-02-24T20:37:58.982Z,3.53
2018-02-24T20:40:02.349Z,3.57
2018-02-24T20:42:05.726Z,3.10
2018-02-24T20:44:08.914Z,3.53
2018-02-24T20:46:12.220Z,3.73
2018-02-24T20:48:15.840Z,3.70
2018-02-24T20:50:20.440Z,3.70
2018-02-24T20:52:23.877Z,3.30
2018-02-24T20:54:27.254Z,3.07
2018-02-24T20:56:30.619Z,4.27
2018-02-24T20:58:33.995Z,3.30
2018-02-24T21:00:37.136Z,3.20
2018-02-24T21:02:40.605Z,3.43
2018-02-24T21:04:44.076Z,3.27
2018-02-24T21:06:47.663Z,3.10
2018-02-24T21:08:51.122Z,3.40
2018-02-24T21:10:55.394Z,3.20
2018-02-24T21:12:58.775Z,3.43
2018-02-24T21:15:02.226Z,3.40
2018-02-24T21:17:06.517Z,3.23
2018-02-24T21:19:10.262Z,3.33
2018-02-24T21:21:13.817Z,3.60
2018-02-24T21:23:17.340Z,2.90
2018-02-24T21:25:20.956Z,3.13
2018-02-24T21:27:24.481Z,3.30
2018-02-24T21:29:28.298Z,2.87
2018-02-24T21:31:32.576Z,3.17
2018-02-24T21:33:36.041Z,3.17
2018-02-24T21:35:39.357Z,2.90
2018-02-24T21:37:42.777Z,2.93
2018-02-24T21:39:46.235Z,3.33
2018-02-24T21:41:49.742Z,3.10
2018-02-24T21:43:53.234Z,2.90
2018-02-24T21:45:57.486Z,3.10
2018-02-24T21:48:01.093Z,2.87
2018-02-24T21:50:04.707Z,3.17
2018-02-24T21:52:08.256Z,3.17
2018-02-24T21:54:11.781Z,2.90
2018-02-24T21:56:15.166Z,3.17
2018-02-24T21:58:18.661Z,2.67
2018-02-24T22:00:23.019Z,3.30
2018-02-24T22:02:26.530Z,2.60
2018-02-24T22:04:29.926Z,3.00
2018-02-24T22:06:33.419Z,2.93
2018-02-24T22:08:36.920Z,3.00
2018-02-24T22:10:40.433Z,2.67
2018-02-24T22:12:44.105Z,2.93
2018-02-24T22:14:47.819Z,2.83
2018-02-24T22:16:51.329Z,2.50
2018-02-24T22:18:54.797Z,2.63
2018-02-24T22:20:58.266Z,2.70
2018-02-24T22:23:02.399Z,2.90
2018-02-24T22:25:05.976Z,2.70
2018-02-24T22:27:10.603Z,2.73
2018-02-24T22:29:14.841Z,2.50
2018-02-24T22:31:18.347Z,3.07
2018-02-24T22:33:21.868Z,2.77
2018-02-24T22:35:25.315Z,2.97
2018-02-24T22:37:28.843Z,2.67
2018-02-24T22:39:32.234Z,2.60
2018-02-24T22:41:35.868Z,2.40
2018-02-24T22:43:39.315Z,2.50
2018-02-24T22:45:42.790Z,2.30
2018-02-24T22:47:51.781Z,2.67
2018-02-24T22:49:55.534Z,2.10
2018-02-24T22:51:59.036Z,2.67
2018-02-24T22:54:02.492Z,2.40
2018-02-24T22:56:05.959Z,2.30
2018-02-24T22:58:09.465Z,2.50
2018-02-24T23:00:12.533Z,2.47
2018-02-24T23:02:16.094Z,2.77
2018-02-24T23:04:19.830Z,2.73
2018-02-24T23:06:24.134Z,2.53
2018-02-24T23:08:27.576Z,2.60
2018-02-24T23:10:31.010Z,2.17
2018-02-24T23:12:34.490Z,2.63
2018-02-24T23:14:37.988Z,2.27
2018-02-24T23:16:41.393Z,2.23
2018-02-24T23:18:45.081Z,2.47
2018-02-24T23:20:48.615Z,2.80
2018-02-24T23:22:52.052Z,2.40
2018-02-24T23:24:55.518Z,2.10
2018-02-24T23:26:59.671Z,2.33
2018-02-24T23:29:03.136Z,2.07
2018-02-24T23:31:06.630Z,2.40
2018-02-24T23:33:10.101Z,2.43
2018-02-24T23:35:13.580Z,2.50
2018-02-24T23:37:17.030Z,2.40
2018-02-24T23:39:20.350Z,2.37
2018-02-24T23:41:23.886Z,2.40
2018-02-24T23:43:28.095Z,2.60
2018-02-24T23:45:32.269Z,2.60
2018-02-24T23:47:35.466Z,2.63
2018-02-24T23:49:39.025Z,2.07
2018-02-24T23:51:42.395Z,2.10
2018-02-24T23:53:45.602Z,2.37
2018-02-24T23:55:48.973Z,2.37
2018-02-24T23:57:52.338Z,2.60
2018-02-24T23:59:56.515Z,2.20
